sim
Sign-in with your pilot id or email,
or register
Callsign
Passwort

Schedule Details

Flight Number: DLH2223
Departure: Toulouse Blagnac Airport (LFBO) at 05:00
Arrival: Munich Airport (EDDM) at 06:45
Route: Lufthansa Passenger Schedule. Enter filed route here before submitting Pirep.

Weather Information
Getting current METAR information for LFBO 250400Z AUTO 25010KT 9999 ///TCU 11/09 Q1012 TEMPO 3000 SHRA BKN015 FEW030CB BECMG 27015G25KT
Getting current METAR information for EDDM 250420Z 19006KT 9999 -RA SCT040 12/12 Q1001 NOSIG

Schedule Frequency

Route Map